Somerset, Massachusetts
Current Conditions -  °F | °C
As of 1:53 PM on Sunday 21 Dec 2014 (Local Time) from KEWB Reporting Station
Light Rain Light Rain  
Wind Chill: 30°   Ceiling: 500
Heat Index: 36°   Visibility: 10mi
Dew Point: 35°   Wind: 8mph
Humidity: 97%   Direction: 360°N
Pressure: 30.26"   Gusts: NA
Location:  41.75°N, 71.14°W
Report Text: KEWB 211853Z 36007KT 10SM -RA OVC005 02/02 A3026 RMK AO2 RAB15 SLP248 P0000 T00220017
Loading
Personal Weather Stations






























Interactive Weather Map New forecast layout! Learn more

10-Day Weather Forecast

Advertisements
Track Severe Weather on mobile